Airfield :
LOGIN :

Register | Disclaimer

   EN    FR    IT 

 










Legend :    VFR   Marginal VFR   IFR   Intensive IFR   Very Intensive IFR
Visi :
Ceiling :
>= 8 km
>= 3000ft
5 to 8 km
1000 to 3000 ft
1500m to 5 km
500 to 1000 ft
800 to 1500m
200 to 500 ft
< 800m
< 200 ft
Symbols :   Thunderstorms  Fog  Heavy snow  Heavy precipitations  Wind > 20 kt
SIGMETs :     Misc.  Thunderstorms  Icing  Turbulence  Mountain Waves  Volcanic Ashes






- Airport Elevation : 1106 ft


LFSO - Nancy / Ochey

CURRENT METAR :
  • 011400Z AUTO 29010KT 260V320 CAVOK 21/09 Q1012

EXPIRED METARs :
  • 011330Z AUTO 28009KT 240V320 CAVOK 22/10 Q1012
  • 011300Z AUTO 30010KT 250V350 9999 FEW047 SCT230 21/10 Q1012
  • 011230Z AUTO 31010KT 9999 FEW045 21/11 Q1012
  • 011200Z AUTO 30013KT 9999 FEW046 SCT070 BKN080 20/11 Q1012
  • 011130Z AUTO 27008KT 240V310 9999 FEW042 20/11 Q1012

Expired Forecast.



MET'MAP, your aeronautical weather chart ! - Copyright ORBIFLY December 2007 - Disclaimer

ORBIFLY MET'MAP TEAM :

Programming & Development : Alexandra Zaïnal
Concept & original design : Baudouin d'Aumeries
Assistance for programming : Marc-Olivier Méhu
Technical & hardware support : Manuel Goepfert

Contact : metmap@orbifly.com




SOURCES & CREDITS :

   NOAA